sensor_id;sensor_type;location;lat;lon;timestamp;P1;durP1;ratioP1;P2;durP2;ratioP2
6209;SDS011;3138;52.550;13.148;2022-08-14T00:01:32;12.30;;;9.03;;
6209;SDS011;3138;52.550;13.148;2022-08-14T00:03:59;14.90;;;8.17;;
6209;SDS011;3138;52.550;13.148;2022-08-14T00:06:26;13.30;;;8.07;;
6209;SDS011;3138;52.550;13.148;2022-08-14T00:08:53;9.50;;;7.70;;
6209;SDS011;3138;52.550;13.148;2022-08-14T00:11:20;8.17;;;7.37;;
6209;SDS011;3138;52.550;13.148;2022-08-14T00:13:47;8.13;;;7.33;;
6209;SDS011;3138;52.550;13.148;2022-08-14T00:16:14;12.43;;;9.73;;
6209;SDS011;3138;52.550;13.148;2022-08-14T00:18:42;11.43;;;8.70;;
6209;SDS011;3138;52.550;13.148;2022-08-14T00:21:09;9.03;;;8.13;;
6209;SDS011;3138;52.550;13.148;2022-08-14T00:23:36;10.53;;;8.63;;
6209;SDS011;3138;52.550;13.148;2022-08-14T00:26:02;16.10;;;9.30;;
6209;SDS011;3138;52.550;13.148;2022-08-14T00:28:29;27.47;;;8.90;;
6209;SDS011;3138;52.550;13.148;2022-08-14T00:30:56;9.70;;;8.20;;
6209;SDS011;3138;52.550;13.148;2022-08-14T00:33:24;8.07;;;7.47;;
6209;SDS011;3138;52.550;13.148;2022-08-14T00:35:53;10.40;;;9.50;;
6209;SDS011;3138;52.550;13.148;2022-08-14T00:38:20;11.50;;;8.63;;
6209;SDS011;3138;52.550;13.148;2022-08-14T00:40:47;13.83;;;9.00;;
6209;SDS011;3138;52.550;13.148;2022-08-14T00:43:14;12.07;;;10.00;;
6209;SDS011;3138;52.550;13.148;2022-08-14T00:45:41;12.60;;;8.83;;
6209;SDS011;3138;52.550;13.148;2022-08-14T00:48:09;12.30;;;9.40;;
6209;SDS011;3138;52.550;13.148;2022-08-14T00:50:36;12.67;;;9.10;;
6209;SDS011;3138;52.550;13.148;2022-08-14T00:53:05;16.83;;;10.17;;
6209;SDS011;3138;52.550;13.148;2022-08-14T00:55:34;12.40;;;8.80;;
6209;SDS011;3138;52.550;13.148;2022-08-14T00:58:05;11.80;;;9.10;;
6209;SDS011;3138;52.550;13.148;2022-08-14T01:00:50;11.00;;;8.60;;
6209;SDS011;3138;52.550;13.148;2022-08-14T01:03:18;10.83;;;9.87;;
6209;SDS011;3138;52.550;13.148;2022-08-14T01:05:46;11.83;;;10.20;;
6209;SDS011;3138;52.550;13.148;2022-08-14T01:08:16;19.20;;;8.70;;
6209;SDS011;3138;52.550;13.148;2022-08-14T01:10:45;9.27;;;8.37;;
6209;SDS011;3138;52.550;13.148;2022-08-14T01:13:17;12.43;;;9.37;;
6209;SDS011;3138;52.550;13.148;2022-08-14T01:15:45;10.90;;;9.27;;
6209;SDS011;3138;52.550;13.148;2022-08-14T01:18:14;10.73;;;9.70;;
6209;SDS011;3138;52.550;13.148;2022-08-14T01:20:59;11.77;;;8.93;;
6209;SDS011;3138;52.550;13.148;2022-08-14T01:23:32;15.10;;;9.10;;
6209;SDS011;3138;52.550;13.148;2022-08-14T01:26:00;13.57;;;10.67;;
6209;SDS011;3138;52.550;13.148;2022-08-14T01:28:28;12.27;;;10.10;;
6209;SDS011;3138;52.550;13.148;2022-08-14T01:30:58;10.87;;;9.77;;
6209;SDS011;3138;52.550;13.148;2022-08-14T01:33:26;13.50;;;10.33;;
6209;SDS011;3138;52.550;13.148;2022-08-14T01:35:54;19.80;;;9.80;;
6209;SDS011;3138;52.550;13.148;2022-08-14T01:38:22;12.03;;;10.83;;
6209;SDS011;3138;52.550;13.148;2022-08-14T01:40:51;15.10;;;9.70;;
6209;SDS011;3138;52.550;13.148;2022-08-14T01:43:19;12.00;;;9.87;;
6209;SDS011;3138;52.550;13.148;2022-08-14T01:45:46;19.80;;;11.40;;
6209;SDS011;3138;52.550;13.148;2022-08-14T01:48:15;10.90;;;9.80;;
6209;SDS011;3138;52.550;13.148;2022-08-14T01:50:42;24.97;;;10.53;;
6209;SDS011;3138;52.550;13.148;2022-08-14T01:53:09;20.50;;;10.20;;
6209;SDS011;3138;52.550;13.148;2022-08-14T01:55:36;16.33;;;9.53;;
6209;SDS011;3138;52.550;13.148;2022-08-14T01:58:05;13.80;;;9.43;;
6209;SDS011;3138;52.550;13.148;2022-08-14T02:00:36;13.57;;;10.67;;
6209;SDS011;3138;52.550;13.148;2022-08-14T02:03:03;14.70;;;11.40;;
6209;SDS011;3138;52.550;13.148;2022-08-14T02:05:30;13.50;;;11.63;;
6209;SDS011;3138;52.550;13.148;2022-08-14T02:07:58;14.33;;;10.83;;
6209;SDS011;3138;52.550;13.148;2022-08-14T02:10:25;14.23;;;11.73;;
6209;SDS011;3138;52.550;13.148;2022-08-14T02:12:53;11.37;;;10.37;;
6209;SDS011;3138;52.550;13.148;2022-08-14T02:15:22;19.40;;;11.20;;
6209;SDS011;3138;52.550;13.148;2022-08-14T02:17:49;11.33;;;10.23;;
6209;SDS011;3138;52.550;13.148;2022-08-14T02:20:15;20.70;;;10.70;;
6209;SDS011;3138;52.550;13.148;2022-08-14T02:22:44;12.43;;;10.40;;
6209;SDS011;3138;52.550;13.148;2022-08-14T02:25:11;12.53;;;11.00;;
6209;SDS011;3138;52.550;13.148;2022-08-14T02:27:39;11.13;;;10.03;;
6209;SDS011;3138;52.550;13.148;2022-08-14T02:30:07;12.70;;;10.80;;
6209;SDS011;3138;52.550;13.148;2022-08-14T02:32:36;13.20;;;10.00;;
6209;SDS011;3138;52.550;13.148;2022-08-14T02:35:04;14.33;;;11.17;;
6209;SDS011;3138;52.550;13.148;2022-08-14T02:37:42;10.80;;;9.57;;
6209;SDS011;3138;52.550;13.148;2022-08-14T02:40:09;13.90;;;10.90;;
6209;SDS011;3138;52.550;13.148;2022-08-14T02:42:38;15.33;;;9.80;;
6209;SDS011;3138;52.550;13.148;2022-08-14T02:45:05;14.20;;;10.70;;
6209;SDS011;3138;52.550;13.148;2022-08-14T02:47:33;14.53;;;10.63;;
6209;SDS011;3138;52.550;13.148;2022-08-14T02:50:02;21.20;;;10.13;;
6209;SDS011;3138;52.550;13.148;2022-08-14T02:52:29;17.03;;;10.23;;
6209;SDS011;3138;52.550;13.148;2022-08-14T02:54:59;13.17;;;9.60;;
6209;SDS011;3138;52.550;13.148;2022-08-14T02:57:26;13.33;;;10.40;;
6209;SDS011;3138;52.550;13.148;2022-08-14T02:59:53;22.00;;;10.63;;
6209;SDS011;3138;52.550;13.148;2022-08-14T03:02:21;12.30;;;10.60;;
6209;SDS011;3138;52.550;13.148;2022-08-14T03:04:48;12.53;;;10.37;;
6209;SDS011;3138;52.550;13.148;2022-08-14T03:07:16;25.27;;;10.97;;
6209;SDS011;3138;52.550;13.148;2022-08-14T03:09:43;21.50;;;10.70;;
6209;SDS011;3138;52.550;13.148;2022-08-14T03:12:10;10.60;;;9.53;;
6209;SDS011;3138;52.550;13.148;2022-08-14T03:14:37;13.53;;;10.47;;
6209;SDS011;3138;52.550;13.148;2022-08-14T03:17:08;15.57;;;9.47;;
6209;SDS011;3138;52.550;13.148;2022-08-14T03:19:37;13.97;;;9.40;;
6209;SDS011;3138;52.550;13.148;2022-08-14T03:22:04;16.03;;;9.13;;
6209;SDS011;3138;52.550;13.148;2022-08-14T03:24:32;11.03;;;9.70;;
6209;SDS011;3138;52.550;13.148;2022-08-14T03:27:01;11.50;;;10.40;;
6209;SDS011;3138;52.550;13.148;2022-08-14T03:29:28;11.97;;;10.87;;
6209;SDS011;3138;52.550;13.148;2022-08-14T03:31:55;11.33;;;10.23;;
6209;SDS011;3138;52.550;13.148;2022-08-14T03:34:23;13.40;;;10.90;;
6209;SDS011;3138;52.550;13.148;2022-08-14T03:36:51;11.60;;;10.40;;
6209;SDS011;3138;52.550;13.148;2022-08-14T03:39:22;11.10;;;10.00;;
6209;SDS011;3138;52.550;13.148;2022-08-14T03:41:52;14.53;;;10.37;;
6209;SDS011;3138;52.550;13.148;2022-08-14T03:44:20;19.33;;;11.20;;
6209;SDS011;3138;52.550;13.148;2022-08-14T03:46:47;15.10;;;11.27;;
6209;SDS011;3138;52.550;13.148;2022-08-14T03:49:15;11.90;;;10.70;;
6209;SDS011;3138;52.550;13.148;2022-08-14T03:51:44;15.70;;;11.60;;
6209;SDS011;3138;52.550;13.148;2022-08-14T03:54:11;12.57;;;11.30;;
6209;SDS011;3138;52.550;13.148;2022-08-14T03:56:38;13.40;;;11.93;;
6209;SDS011;3138;52.550;13.148;2022-08-14T03:59:10;16.43;;;11.03;;
6209;SDS011;3138;52.550;13.148;2022-08-14T04:01:37;14.53;;;10.10;;
6209;SDS011;3138;52.550;13.148;2022-08-14T04:04:05;21.87;;;11.80;;
6209;SDS011;3138;52.550;13.148;2022-08-14T04:06:33;13.77;;;11.17;;
6209;SDS011;3138;52.550;13.148;2022-08-14T04:09:01;13.87;;;11.00;;
6209;SDS011;3138;52.550;13.148;2022-08-14T04:11:30;15.50;;;11.70;;
6209;SDS011;3138;52.550;13.148;2022-08-14T04:13:56;13.57;;;12.27;;
6209;SDS011;3138;52.550;13.148;2022-08-14T04:16:26;11.83;;;10.53;;
6209;SDS011;3138;52.550;13.148;2022-08-14T04:18:54;17.43;;;10.83;;
6209;SDS011;3138;52.550;13.148;2022-08-14T04:21:22;13.63;;;11.70;;
6209;SDS011;3138;52.550;13.148;2022-08-14T04:23:52;10.83;;;9.83;;
6209;SDS011;3138;52.550;13.148;2022-08-14T04:26:22;12.63;;;11.40;;
6209;SDS011;3138;52.550;13.148;2022-08-14T04:28:50;12.80;;;11.40;;
6209;SDS011;3138;52.550;13.148;2022-08-14T04:31:17;14.80;;;12.13;;
6209;SDS011;3138;52.550;13.148;2022-08-14T04:33:47;11.97;;;10.90;;
6209;SDS011;3138;52.550;13.148;2022-08-14T04:36:14;12.40;;;11.20;;
6209;SDS011;3138;52.550;13.148;2022-08-14T04:38:40;13.77;;;12.30;;
6209;SDS011;3138;52.550;13.148;2022-08-14T04:41:25;14.33;;;10.30;;
6209;SDS011;3138;52.550;13.148;2022-08-14T04:44:09;20.47;;;11.73;;
6209;SDS011;3138;52.550;13.148;2022-08-14T04:46:36;15.70;;;11.77;;
6209;SDS011;3138;52.550;13.148;2022-08-14T04:49:04;15.40;;;11.67;;
6209;SDS011;3138;52.550;13.148;2022-08-14T04:51:30;11.87;;;10.67;;
6209;SDS011;3138;52.550;13.148;2022-08-14T04:53:57;13.53;;;11.07;;
6209;SDS011;3138;52.550;13.148;2022-08-14T04:56:25;12.93;;;10.70;;
6209;SDS011;3138;52.550;13.148;2022-08-14T04:58:53;13.27;;;11.77;;
6209;SDS011;3138;52.550;13.148;2022-08-14T05:01:24;27.30;;;12.30;;
6209;SDS011;3138;52.550;13.148;2022-08-14T05:03:51;19.00;;;12.47;;
6209;SDS011;3138;52.550;13.148;2022-08-14T05:06:21;14.67;;;12.50;;
6209;SDS011;3138;52.550;13.148;2022-08-14T05:08:49;13.43;;;12.03;;
6209;SDS011;3138;52.550;13.148;2022-08-14T05:11:16;16.97;;;12.93;;
6209;SDS011;3138;52.550;13.148;2022-08-14T05:13:43;17.70;;;11.60;;
6209;SDS011;3138;52.550;13.148;2022-08-14T05:16:10;17.00;;;11.67;;
6209;SDS011;3138;52.550;13.148;2022-08-14T05:18:38;17.17;;;12.60;;
6209;SDS011;3138;52.550;13.148;2022-08-14T05:21:05;13.00;;;11.73;;
6209;SDS011;3138;52.550;13.148;2022-08-14T05:23:35;23.63;;;12.10;;
6209;SDS011;3138;52.550;13.148;2022-08-14T05:26:03;17.10;;;10.90;;
6209;SDS011;3138;52.550;13.148;2022-08-14T05:28:37;13.27;;;11.90;;
6209;SDS011;3138;52.550;13.148;2022-08-14T05:31:06;14.87;;;11.77;;
6209;SDS011;3138;52.550;13.148;2022-08-14T05:33:34;13.53;;;12.03;;
6209;SDS011;3138;52.550;13.148;2022-08-14T05:36:02;13.17;;;11.87;;
6209;SDS011;3138;52.550;13.148;2022-08-14T05:38:33;16.20;;;12.03;;
6209;SDS011;3138;52.550;13.148;2022-08-14T05:41:03;14.87;;;11.57;;
6209;SDS011;3138;52.550;13.148;2022-08-14T05:43:31;13.40;;;12.20;;
6209;SDS011;3138;52.550;13.148;2022-08-14T05:45:59;14.50;;;11.77;;
6209;SDS011;3138;52.550;13.148;2022-08-14T05:48:26;22.97;;;11.60;;
6209;SDS011;3138;52.550;13.148;2022-08-14T05:50:53;12.83;;;11.53;;
6209;SDS011;3138;52.550;13.148;2022-08-14T05:53:20;15.00;;;12.03;;
6209;SDS011;3138;52.550;13.148;2022-08-14T05:55:49;14.53;;;11.37;;
6209;SDS011;3138;52.550;13.148;2022-08-14T05:58:16;14.77;;;12.40;;
6209;SDS011;3138;52.550;13.148;2022-08-14T06:00:46;15.30;;;12.20;;
6209;SDS011;3138;52.550;13.148;2022-08-14T06:03:14;15.33;;;11.73;;
6209;SDS011;3138;52.550;13.148;2022-08-14T06:05:42;14.13;;;12.07;;
6209;SDS011;3138;52.550;13.148;2022-08-14T06:08:13;12.73;;;11.53;;
6209;SDS011;3138;52.550;13.148;2022-08-14T06:10:41;13.03;;;11.67;;
6209;SDS011;3138;52.550;13.148;2022-08-14T06:13:10;15.70;;;11.17;;
6209;SDS011;3138;52.550;13.148;2022-08-14T06:15:38;14.37;;;12.80;;
6209;SDS011;3138;52.550;13.148;2022-08-14T06:18:05;16.30;;;12.33;;
6209;SDS011;3138;52.550;13.148;2022-08-14T06:20:32;14.70;;;13.10;;
6209;SDS011;3138;52.550;13.148;2022-08-14T06:22:59;14.13;;;10.90;;
6209;SDS011;3138;52.550;13.148;2022-08-14T06:25:26;20.00;;;12.80;;
6209;SDS011;3138;52.550;13.148;2022-08-14T06:27:53;14.40;;;10.83;;
6209;SDS011;3138;52.550;13.148;2022-08-14T06:30:22;12.30;;;11.10;;
6209;SDS011;3138;52.550;13.148;2022-08-14T06:32:50;19.53;;;12.60;;
6209;SDS011;3138;52.550;13.148;2022-08-14T06:35:17;15.23;;;11.50;;
6209;SDS011;3138;52.550;13.148;2022-08-14T06:37:45;13.27;;;11.40;;
6209;SDS011;3138;52.550;13.148;2022-08-14T06:40:14;14.13;;;11.13;;
6209;SDS011;3138;52.550;13.148;2022-08-14T06:42:43;13.33;;;11.30;;
6209;SDS011;3138;52.550;13.148;2022-08-14T06:45:09;11.47;;;10.47;;
6209;SDS011;3138;52.550;13.148;2022-08-14T06:47:39;15.03;;;10.40;;
6209;SDS011;3138;52.550;13.148;2022-08-14T06:50:08;20.90;;;10.53;;
6209;SDS011;3138;52.550;13.148;2022-08-14T06:52:37;16.00;;;10.37;;
6209;SDS011;3138;52.550;13.148;2022-08-14T06:55:05;19.93;;;10.37;;
6209;SDS011;3138;52.550;13.148;2022-08-14T06:57:33;13.67;;;11.13;;
6209;SDS011;3138;52.550;13.148;2022-08-14T07:00:03;15.50;;;10.73;;
6209;SDS011;3138;52.550;13.148;2022-08-14T07:02:32;14.53;;;11.60;;
6209;SDS011;3138;52.550;13.148;2022-08-14T07:05:18;17.50;;;10.33;;
6209;SDS011;3138;52.550;13.148;2022-08-14T07:08:02;12.10;;;10.20;;
6209;SDS011;3138;52.550;13.148;2022-08-14T07:10:29;14.40;;;10.83;;
6209;SDS011;3138;52.550;13.148;2022-08-14T07:12:57;11.67;;;10.43;;
6209;SDS011;3138;52.550;13.148;2022-08-14T07:15:24;12.20;;;10.00;;
6209;SDS011;3138;52.550;13.148;2022-08-14T07:17:50;13.80;;;9.97;;
6209;SDS011;3138;52.550;13.148;2022-08-14T07:20:18;13.13;;;10.67;;
6209;SDS011;3138;52.550;13.148;2022-08-14T07:22:45;18.93;;;12.03;;
6209;SDS011;3138;52.550;13.148;2022-08-14T07:25:13;20.60;;;10.60;;
6209;SDS011;3138;52.550;13.148;2022-08-14T07:27:40;11.30;;;10.20;;
6209;SDS011;3138;52.550;13.148;2022-08-14T07:30:08;15.07;;;10.60;;
6209;SDS011;3138;52.550;13.148;2022-08-14T07:32:36;21.67;;;11.13;;
6209;SDS011;3138;52.550;13.148;2022-08-14T07:35:03;12.57;;;11.37;;
6209;SDS011;3138;52.550;13.148;2022-08-14T07:37:31;11.40;;;10.00;;
6209;SDS011;3138;52.550;13.148;2022-08-14T07:39:58;15.30;;;10.53;;
6209;SDS011;3138;52.550;13.148;2022-08-14T07:42:26;12.13;;;9.20;;
6209;SDS011;3138;52.550;13.148;2022-08-14T07:44:53;15.57;;;9.67;;
6209;SDS011;3138;52.550;13.148;2022-08-14T07:47:20;14.33;;;9.30;;
6209;SDS011;3138;52.550;13.148;2022-08-14T07:49:50;9.90;;;8.87;;
6209;SDS011;3138;52.550;13.148;2022-08-14T07:52:23;13.20;;;10.07;;
6209;SDS011;3138;52.550;13.148;2022-08-14T07:54:51;14.07;;;9.90;;
6209;SDS011;3138;52.550;13.148;2022-08-14T07:57:18;10.43;;;9.53;;
6209;SDS011;3138;52.550;13.148;2022-08-14T07:59:45;11.70;;;8.67;;
6209;SDS011;3138;52.550;13.148;2022-08-14T08:02:13;17.47;;;9.37;;
6209;SDS011;3138;52.550;13.148;2022-08-14T08:04:42;14.40;;;9.40;;
6209;SDS011;3138;52.550;13.148;2022-08-14T08:07:10;12.03;;;8.50;;
6209;SDS011;3138;52.550;13.148;2022-08-14T08:09:37;8.83;;;8.10;;
6209;SDS011;3138;52.550;13.148;2022-08-14T08:12:10;9.00;;;8.13;;
6209;SDS011;3138;52.550;13.148;2022-08-14T08:14:40;12.07;;;8.17;;
6209;SDS011;3138;52.550;13.148;2022-08-14T08:17:08;12.50;;;8.10;;
6209;SDS011;3138;52.550;13.148;2022-08-14T08:19:35;12.97;;;8.80;;
6209;SDS011;3138;52.550;13.148;2022-08-14T08:22:03;10.10;;;9.10;;
6209;SDS011;3138;52.550;13.148;2022-08-14T08:24:30;13.80;;;7.80;;
6209;SDS011;3138;52.550;13.148;2022-08-14T08:26:57;12.37;;;7.90;;
6209;SDS011;3138;52.550;13.148;2022-08-14T08:29:28;9.63;;;8.57;;
6209;SDS011;3138;52.550;13.148;2022-08-14T08:31:55;10.13;;;7.97;;
6209;SDS011;3138;52.550;13.148;2022-08-14T08:34:23;11.27;;;8.60;;
6209;SDS011;3138;52.550;13.148;2022-08-14T08:36:50;13.57;;;7.37;;
6209;SDS011;3138;52.550;13.148;2022-08-14T08:39:17;13.83;;;8.20;;
6209;SDS011;3138;52.550;13.148;2022-08-14T08:41:44;11.67;;;7.67;;
6209;SDS011;3138;52.550;13.148;2022-08-14T08:44:13;10.67;;;8.30;;
6209;SDS011;3138;52.550;13.148;2022-08-14T08:46:43;13.60;;;7.27;;
6209;SDS011;3138;52.550;13.148;2022-08-14T08:49:11;9.70;;;8.70;;
6209;SDS011;3138;52.550;13.148;2022-08-14T08:51:37;12.30;;;8.23;;
6209;SDS011;3138;52.550;13.148;2022-08-14T08:54:05;19.90;;;7.63;;
6209;SDS011;3138;52.550;13.148;2022-08-14T08:56:35;10.50;;;8.33;;
6209;SDS011;3138;52.550;13.148;2022-08-14T08:59:14;12.80;;;9.30;;
6209;SDS011;3138;52.550;13.148;2022-08-14T09:01:48;12.07;;;8.57;;
6209;SDS011;3138;52.550;13.148;2022-08-14T09:04:17;15.90;;;8.70;;
6209;SDS011;3138;52.550;13.148;2022-08-14T09:06:44;13.13;;;8.23;;
6209;SDS011;3138;52.550;13.148;2022-08-14T09:09:18;22.17;;;9.20;;
6209;SDS011;3138;52.550;13.148;2022-08-14T09:11:46;18.60;;;9.03;;
6209;SDS011;3138;52.550;13.148;2022-08-14T09:14:13;13.20;;;8.23;;
6209;SDS011;3138;52.550;13.148;2022-08-14T09:16:40;9.50;;;8.00;;
6209;SDS011;3138;52.550;13.148;2022-08-14T09:19:09;20.07;;;7.70;;
6209;SDS011;3138;52.550;13.148;2022-08-14T09:21:37;12.00;;;8.00;;
6209;SDS011;3138;52.550;13.148;2022-08-14T09:24:04;16.77;;;8.07;;
6209;SDS011;3138;52.550;13.148;2022-08-14T09:29:16;15.27;;;7.43;;
6209;SDS011;3138;52.550;13.148;2022-08-14T09:31:44;8.70;;;7.40;;
6209;SDS011;3138;52.550;13.148;2022-08-14T09:34:17;14.40;;;7.50;;
6209;SDS011;3138;52.550;13.148;2022-08-14T09:37:03;12.70;;;6.90;;
6209;SDS011;3138;52.550;13.148;2022-08-14T09:39:43;9.60;;;7.60;;
6209;SDS011;3138;52.550;13.148;2022-08-14T09:42:28;13.27;;;7.83;;
6209;SDS011;3138;52.550;13.148;2022-08-14T09:45:14;8.77;;;7.07;;
6209;SDS011;3138;52.550;13.148;2022-08-14T09:47:43;6.37;;;5.77;;
6209;SDS011;3138;52.550;13.148;2022-08-14T09:50:20;13.33;;;6.80;;
6209;SDS011;3138;52.550;13.148;2022-08-14T09:52:50;7.20;;;6.00;;
6209;SDS011;3138;52.550;13.148;2022-08-14T09:55:20;12.10;;;6.00;;
6209;SDS011;3138;52.550;13.148;2022-08-14T09:57:48;12.77;;;6.97;;
6209;SDS011;3138;52.550;13.148;2022-08-14T10:00:16;32.33;;;7.77;;
6209;SDS011;3138;52.550;13.148;2022-08-14T10:02:50;10.23;;;6.77;;
6209;SDS011;3138;52.550;13.148;2022-08-14T10:05:30;8.27;;;6.30;;
6209;SDS011;3138;52.550;13.148;2022-08-14T10:07:58;9.30;;;5.70;;
6209;SDS011;3138;52.550;13.148;2022-08-14T10:10:30;13.60;;;6.63;;
6209;SDS011;3138;52.550;13.148;2022-08-14T10:12:58;21.07;;;6.60;;
6209;SDS011;3138;52.550;13.148;2022-08-14T10:15:26;34.37;;;6.10;;
6209;SDS011;3138;52.550;13.148;2022-08-14T10:18:07;8.93;;;6.80;;
6209;SDS011;3138;52.550;13.148;2022-08-14T10:20:37;6.17;;;5.57;;
6209;SDS011;3138;52.550;13.148;2022-08-14T10:23:13;7.33;;;6.33;;
6209;SDS011;3138;52.550;13.148;2022-08-14T10:25:42;6.80;;;5.80;;
6209;SDS011;3138;52.550;13.148;2022-08-14T10:28:10;11.10;;;5.77;;
6209;SDS011;3138;52.550;13.148;2022-08-14T10:30:39;11.33;;;5.60;;
6209;SDS011;3138;52.550;13.148;2022-08-14T10:33:25;25.63;;;5.97;;
6209;SDS011;3138;52.550;13.148;2022-08-14T10:35:55;8.00;;;6.47;;
6209;SDS011;3138;52.550;13.148;2022-08-14T10:38:28;20.53;;;5.93;;
6209;SDS011;3138;52.550;13.148;2022-08-14T10:41:07;8.17;;;6.37;;
6209;SDS011;3138;52.550;13.148;2022-08-14T10:43:37;5.00;;;4.60;;
6209;SDS011;3138;52.550;13.148;2022-08-14T10:46:10;9.70;;;6.03;;
6209;SDS011;3138;52.550;13.148;2022-08-14T10:48:38;10.73;;;5.80;;
6209;SDS011;3138;52.550;13.148;2022-08-14T10:51:07;23.97;;;5.67;;
6209;SDS011;3138;52.550;13.148;2022-08-14T10:53:34;9.33;;;5.63;;
6209;SDS011;3138;52.550;13.148;2022-08-14T10:56:05;10.40;;;6.30;;
6209;SDS011;3138;52.550;13.148;2022-08-14T10:58:34;24.63;;;5.70;;
6209;SDS011;3138;52.550;13.148;2022-08-14T11:01:01;12.63;;;5.47;;
6209;SDS011;3138;52.550;13.148;2022-08-14T11:03:35;17.33;;;5.73;;
6209;SDS011;3138;52.550;13.148;2022-08-14T11:06:11;5.30;;;4.80;;
6209;SDS011;3138;52.550;13.148;2022-08-14T11:08:40;14.37;;;4.50;;
6209;SDS011;3138;52.550;13.148;2022-08-14T11:11:07;6.23;;;4.90;;
6209;SDS011;3138;52.550;13.148;2022-08-14T11:13:33;19.57;;;5.03;;
6209;SDS011;3138;52.550;13.148;2022-08-14T11:16:02;19.33;;;5.10;;
6209;SDS011;3138;52.550;13.148;2022-08-14T11:18:29;14.23;;;5.10;;
6209;SDS011;3138;52.550;13.148;2022-08-14T11:20:57;4.63;;;4.33;;
6209;SDS011;3138;52.550;13.148;2022-08-14T11:23:27;4.40;;;3.97;;
6209;SDS011;3138;52.550;13.148;2022-08-14T11:25:56;6.80;;;4.43;;
6209;SDS011;3138;52.550;13.148;2022-08-14T11:28:25;16.73;;;4.73;;
6209;SDS011;3138;52.550;13.148;2022-08-14T11:30:57;5.83;;;4.97;;
6209;SDS011;3138;52.550;13.148;2022-08-14T11:33:26;6.73;;;4.63;;
6209;SDS011;3138;52.550;13.148;2022-08-14T11:35:56;10.77;;;4.90;;
6209;SDS011;3138;52.550;13.148;2022-08-14T11:38:24;11.20;;;4.00;;
6209;SDS011;3138;52.550;13.148;2022-08-14T11:40:54;20.90;;;4.63;;
6209;SDS011;3138;52.550;13.148;2022-08-14T11:43:21;13.57;;;4.60;;
6209;SDS011;3138;52.550;13.148;2022-08-14T11:45:50;10.53;;;3.80;;
6209;SDS011;3138;52.550;13.148;2022-08-14T11:48:18;14.17;;;4.97;;
6209;SDS011;3138;52.550;13.148;2022-08-14T11:50:46;22.00;;;4.90;;
6209;SDS011;3138;52.550;13.148;2022-08-14T11:53:18;6.37;;;4.47;;
6209;SDS011;3138;52.550;13.148;2022-08-14T11:55:53;10.00;;;4.87;;
6209;SDS011;3138;52.550;13.148;2022-08-14T11:58:24;9.47;;;4.30;;
6209;SDS011;3138;52.550;13.148;2022-08-14T12:00:52;9.80;;;4.70;;
6209;SDS011;3138;52.550;13.148;2022-08-14T12:03:22;9.30;;;4.20;;
6209;SDS011;3138;52.550;13.148;2022-08-14T12:06:02;7.83;;;4.40;;
6209;SDS011;3138;52.550;13.148;2022-08-14T12:08:31;12.57;;;4.70;;
6209;SDS011;3138;52.550;13.148;2022-08-14T12:11:01;9.13;;;3.70;;
6209;SDS011;3138;52.550;13.148;2022-08-14T12:13:29;8.00;;;4.00;;
6209;SDS011;3138;52.550;13.148;2022-08-14T12:15:58;7.00;;;4.13;;
6209;SDS011;3138;52.550;13.148;2022-08-14T12:18:30;11.03;;;4.30;;
6209;SDS011;3138;52.550;13.148;2022-08-14T12:21:08;6.33;;;4.80;;
6209;SDS011;3138;52.550;13.148;2022-08-14T12:23:36;6.70;;;4.63;;
6209;SDS011;3138;52.550;13.148;2022-08-14T12:26:05;17.23;;;4.40;;
6209;SDS011;3138;52.550;13.148;2022-08-14T12:28:43;8.63;;;4.20;;
6209;SDS011;3138;52.550;13.148;2022-08-14T12:31:10;7.53;;;4.03;;
6209;SDS011;3138;52.550;13.148;2022-08-14T12:33:40;8.50;;;4.40;;
6209;SDS011;3138;52.550;13.148;2022-08-14T12:36:09;6.50;;;4.60;;
6209;SDS011;3138;52.550;13.148;2022-08-14T12:38:46;7.37;;;4.10;;
6209;SDS011;3138;52.550;13.148;2022-08-14T12:41:15;5.53;;;4.23;;
6209;SDS011;3138;52.550;13.148;2022-08-14T12:43:45;5.60;;;4.10;;
6209;SDS011;3138;52.550;13.148;2022-08-14T12:46:25;6.13;;;3.80;;
6209;SDS011;3138;52.550;13.148;2022-08-14T12:48:54;8.00;;;3.90;;
6209;SDS011;3138;52.550;13.148;2022-08-14T12:51:23;9.27;;;4.33;;
6209;SDS011;3138;52.550;13.148;2022-08-14T12:53:51;7.73;;;4.60;;
6209;SDS011;3138;52.550;13.148;2022-08-14T12:56:19;5.73;;;4.33;;
6209;SDS011;3138;52.550;13.148;2022-08-14T12:58:51;5.83;;;3.90;;
6209;SDS011;3138;52.550;13.148;2022-08-14T13:01:20;19.13;;;5.40;;
6209;SDS011;3138;52.550;13.148;2022-08-14T13:03:49;7.13;;;4.13;;
6209;SDS011;3138;52.550;13.148;2022-08-14T13:06:17;8.23;;;4.43;;
6209;SDS011;3138;52.550;13.148;2022-08-14T13:08:48;7.90;;;4.30;;
6209;SDS011;3138;52.550;13.148;2022-08-14T13:11:17;5.17;;;4.00;;
6209;SDS011;3138;52.550;13.148;2022-08-14T13:13:44;6.60;;;3.83;;
6209;SDS011;3138;52.550;13.148;2022-08-14T13:16:14;4.30;;;3.90;;
6209;SDS011;3138;52.550;13.148;2022-08-14T13:18:42;13.10;;;4.30;;
6209;SDS011;3138;52.550;13.148;2022-08-14T13:21:11;5.53;;;3.90;;
6209;SDS011;3138;52.550;13.148;2022-08-14T13:23:39;6.57;;;3.70;;
6209;SDS011;3138;52.550;13.148;2022-08-14T13:26:08;4.53;;;4.13;;
6209;SDS011;3138;52.550;13.148;2022-08-14T13:28:36;7.23;;;4.40;;
6209;SDS011;3138;52.550;13.148;2022-08-14T13:31:07;6.30;;;4.37;;
6209;SDS011;3138;52.550;13.148;2022-08-14T13:33:36;30.43;;;4.27;;
6209;SDS011;3138;52.550;13.148;2022-08-14T13:36:03;15.00;;;4.00;;
6209;SDS011;3138;52.550;13.148;2022-08-14T13:38:33;4.67;;;4.20;;
6209;SDS011;3138;52.550;13.148;2022-08-14T13:41:01;11.17;;;4.23;;
6209;SDS011;3138;52.550;13.148;2022-08-14T13:43:30;26.03;;;4.93;;
6209;SDS011;3138;52.550;13.148;2022-08-14T13:45:57;3.87;;;3.53;;
6209;SDS011;3138;52.550;13.148;2022-08-14T13:48:24;5.10;;;4.60;;
6209;SDS011;3138;52.550;13.148;2022-08-14T13:50:54;4.37;;;4.07;;
6209;SDS011;3138;52.550;13.148;2022-08-14T13:53:22;14.00;;;3.80;;
6209;SDS011;3138;52.550;13.148;2022-08-14T13:55:50;5.83;;;4.57;;
6209;SDS011;3138;52.550;13.148;2022-08-14T13:58:18;10.83;;;4.53;;
6209;SDS011;3138;52.550;13.148;2022-08-14T14:00:46;4.47;;;4.03;;
6209;SDS011;3138;52.550;13.148;2022-08-14T14:03:16;13.93;;;4.20;;
6209;SDS011;3138;52.550;13.148;2022-08-14T14:05:44;14.90;;;4.00;;
6209;SDS011;3138;52.550;13.148;2022-08-14T14:08:15;5.57;;;4.53;;
6209;SDS011;3138;52.550;13.148;2022-08-14T14:10:44;19.83;;;4.60;;
6209;SDS011;3138;52.550;13.148;2022-08-14T14:13:14;6.50;;;4.33;;
6209;SDS011;3138;52.550;13.148;2022-08-14T14:15:42;11.33;;;4.07;;
6209;SDS011;3138;52.550;13.148;2022-08-14T14:18:09;4.40;;;4.10;;
6209;SDS011;3138;52.550;13.148;2022-08-14T14:20:36;4.43;;;4.13;;
6209;SDS011;3138;52.550;13.148;2022-08-14T14:23:04;5.10;;;4.63;;
6209;SDS011;3138;52.550;13.148;2022-08-14T14:25:37;4.87;;;4.47;;
6209;SDS011;3138;52.550;13.148;2022-08-14T14:28:07;8.00;;;4.47;;
6209;SDS011;3138;52.550;13.148;2022-08-14T14:30:35;6.73;;;4.00;;
6209;SDS011;3138;52.550;13.148;2022-08-14T14:33:06;6.73;;;4.37;;
6209;SDS011;3138;52.550;13.148;2022-08-14T14:35:35;10.20;;;4.67;;
6209;SDS011;3138;52.550;13.148;2022-08-14T14:38:02;4.87;;;4.30;;
6209;SDS011;3138;52.550;13.148;2022-08-14T14:40:32;4.93;;;3.83;;
6209;SDS011;3138;52.550;13.148;2022-08-14T14:43:04;8.50;;;4.63;;
6209;SDS011;3138;52.550;13.148;2022-08-14T14:45:35;7.30;;;3.77;;
6209;SDS011;3138;52.550;13.148;2022-08-14T14:48:07;22.30;;;4.17;;
6209;SDS011;3138;52.550;13.148;2022-08-14T14:50:34;6.20;;;4.10;;
6209;SDS011;3138;52.550;13.148;2022-08-14T14:53:02;5.53;;;4.17;;
6209;SDS011;3138;52.550;13.148;2022-08-14T14:55:29;10.90;;;3.30;;
6209;SDS011;3138;52.550;13.148;2022-08-14T14:57:56;5.10;;;4.07;;
6209;SDS011;3138;52.550;13.148;2022-08-14T15:00:25;8.73;;;4.10;;